Time;durP1;ratioP1;P1;durP2;ratioP2;P2;SDS_P1;SDS_P2;PMS_P1;PMS_P2;Temp;Humidity;BMP_temperature;BMP_pressure;BME280_temperature;BME280_humidity;BME280_pressure;Samples;Min_cycle;Max_cycle;Signal;HPM_P1;HPM_P2
2022/01/26 00:00:30;;;;;;;106.93;37.55;;;3.70;99.90;;;;;;6185682;23;20451;-85
2022/01/26 00:06:23;;;;;;;95.75;33.95;;;3.70;99.90;;;;;;6185239;23;20025;-86
2022/01/26 00:08:48;;;;;;;110.05;34.92;;;3.70;99.90;;;;;;6185599;23;20096;-86
2022/01/26 00:11:14;;;;;;;116.90;38.53;;;3.70;99.90;;;;;;6160523;23;20056;-85
2022/01/26 00:13:43;;;;;;;105.30;36.70;;;3.70;99.90;;;;;;6160803;23;20029;-92
2022/01/26 00:16:17;;;;;;;96.80;34.90;;;3.70;99.90;;;;;;6160622;23;20021;-90
2022/01/26 00:18:43;;;;;;;98.43;35.05;;;3.70;99.90;;;;;;6160521;23;20036;-84
2022/01/26 00:21:16;;;;;;;100.57;35.13;;;3.70;99.90;;;;;;6186769;23;20021;-85
2022/01/26 00:26:37;;;;;;;107.63;36.42;;;3.70;99.90;;;;;;6185139;23;20021;-87
2022/01/26 00:29:14;;;;;;;99.30;34.67;;;3.70;99.90;;;;;;6186308;23;20021;-86
2022/01/26 00:40:50;;;;;;;105.90;36.53;;;3.70;99.90;;;;;;6185731;23;20025;-86
2022/01/26 00:43:28;;;;;;;104.15;36.38;;;3.70;99.90;;;;;;6184978;23;20073;-85
2022/01/26 00:45:56;;;;;;;99.78;35.50;;;3.60;99.90;;;;;;6159829;23;20024;-90
2022/01/26 00:48:24;;;;;;;97.43;34.17;;;3.60;99.90;;;;;;6135633;23;20044;-86
2022/01/26 00:50:52;;;;;;;92.07;34.10;;;3.60;99.90;;;;;;6161343;23;20021;-85
2022/01/26 00:53:27;;;;;;;100.25;35.25;;;3.60;99.90;;;;;;6135808;23;20454;-85
2022/01/26 00:55:53;;;;;;;102.15;34.42;;;3.60;99.90;;;;;;6136082;23;20343;-92
2022/01/26 00:58:25;;;;;;;103.63;36.40;;;3.60;99.90;;;;;;6187193;23;20025;-86
2022/01/26 01:00:51;;;;;;;97.63;35.22;;;3.60;99.90;;;;;;6135418;23;20075;-85
2022/01/26 01:03:17;;;;;;;98.67;36.40;;;3.60;99.90;;;;;;6135475;23;20073;-84
2022/01/26 01:05:58;;;;;;;99.68;35.08;;;3.60;99.90;;;;;;6135448;23;20025;-86
2022/01/26 01:08:33;;;;;;;93.32;34.28;;;3.60;99.90;;;;;;6136665;23;20017;-87
2022/01/26 01:12:11;;;;;;;100.75;35.35;;;3.60;99.90;;;;;;6159225;23;20533;-84
2022/01/26 01:14:39;;;;;;;96.10;34.38;;;3.60;99.90;;;;;;6107131;23;20129;-88
2022/01/26 01:17:07;;;;;;;102.03;35.78;;;3.50;99.90;;;;;;6106529;23;20538;-87
2022/01/26 01:19:41;;;;;;;112.25;36.40;;;3.50;99.90;;;;;;6105068;23;20026;-85
2022/01/26 01:22:32;;;;;;;102.43;36.08;;;3.50;99.90;;;;;;6105517;23;20411;-93
2022/01/26 01:32:52;;;;;;;99.07;36.30;;;3.50;99.90;;;;;;6162387;23;20328;-87
2022/01/26 01:35:18;;;;;;;103.87;34.53;;;3.50;99.90;;;;;;6138579;23;20024;-86
2022/01/26 01:37:44;;;;;;;108.70;37.42;;;3.50;99.90;;;;;;6137654;23;20260;-85
2022/01/26 01:40:35;;;;;;;105.50;37.03;;;3.40;99.90;;;;;;6164214;23;20021;-84
2022/01/26 01:43:07;;;;;;;109.50;36.85;;;3.40;99.90;;;;;;6138835;23;20032;-89
2022/01/26 01:45:41;;;;;;;106.22;36.63;;;3.50;99.90;;;;;;6140056;23;20017;-85
2022/01/26 01:48:07;;;;;;;97.68;35.67;;;3.40;99.90;;;;;;6167085;23;20028;-86
2022/01/26 01:50:38;;;;;;;105.40;36.00;;;3.40;99.90;;;;;;6194091;23;20025;-84
2022/01/26 01:53:04;;;;;;;100.80;35.90;;;3.40;99.90;;;;;;6168616;23;20036;-84
2022/01/26 01:55:32;;;;;;;102.37;35.87;;;3.40;99.90;;;;;;6169510;23;20024;-84
2022/01/26 01:57:59;;;;;;;92.97;34.35;;;3.40;99.90;;;;;;6169108;23;20021;-84
2022/01/26 02:05:36;;;;;;;94.50;34.22;;;3.40;99.90;;;;;;6184261;23;20021;-83
2022/01/26 02:08:03;;;;;;;97.97;34.40;;;3.40;99.90;;;;;;6159151;23;20021;-84
2022/01/26 02:10:31;;;;;;;81.55;31.88;;;3.40;99.90;;;;;;6134220;23;20072;-87
2022/01/26 02:13:04;;;;;;;94.72;35.13;;;3.40;99.90;;;;;;6134665;23;20024;-83
2022/01/26 02:15:41;;;;;;;94.82;32.58;;;3.40;99.90;;;;;;6159305;23;20024;-85
2022/01/26 02:21:03;;;;;;;97.68;33.58;;;3.40;99.90;;;;;;6159346;23;19915;-84
2022/01/26 02:56:26;;;;;;;107.53;36.58;;;3.40;99.90;;;;;;6158894;23;20025;-83
2022/01/26 03:04:11;;;;;;;104.25;36.33;;;3.40;99.90;;;;;;6158820;23;20017;-84
2022/01/26 03:09:15;;;;;;;96.35;35.40;;;3.40;99.90;;;;;;6159027;23;20017;-84
2022/01/26 03:11:44;;;;;;;102.95;37.05;;;3.30;99.90;;;;;;6134243;23;20024;-85
2022/01/26 03:16:51;;;;;;;99.53;38.33;;;3.40;99.90;;;;;;6158654;23;20028;-86
2022/01/26 03:19:22;;;;;;;106.60;37.25;;;3.30;99.90;;;;;;6134381;23;20021;-85
2022/01/26 03:30:20;;;;;;;97.10;35.63;;;3.30;99.90;;;;;;6158998;23;20352;-84
2022/01/26 03:33:09;;;;;;;105.50;37.75;;;3.30;99.90;;;;;;6134342;23;20056;-84
2022/01/26 03:35:50;;;;;;;115.85;38.08;;;3.30;99.90;;;;;;6158626;23;20028;-86
2022/01/26 03:38:27;;;;;;;107.07;37.45;;;3.30;99.90;;;;;;6158784;23;20023;-86
2022/01/26 03:41:21;;;;;;;93.38;36.05;;;3.30;99.90;;;;;;6133981;23;20009;-84
2022/01/26 03:43:42;;;;;;;97.63;36.03;;;3.40;99.90;;;;;;6157100;23;20032;-84
2022/01/26 03:46:08;;;;;;;93.72;36.05;;;3.40;99.90;;;;;;6158759;23;20017;-84
2022/01/26 03:48:33;;;;;;;107.50;37.77;;;3.40;99.90;;;;;;6158786;23;20354;-84
2022/01/26 03:51:00;;;;;;;97.37;35.93;;;3.40;99.90;;;;;;6134486;23;20402;-87
2022/01/26 03:53:25;;;;;;;103.20;37.35;;;3.40;99.90;;;;;;6158837;23;20021;-84
2022/01/26 03:55:51;;;;;;;98.03;36.67;;;3.40;99.90;;;;;;6134572;23;20025;-88
2022/01/26 03:58:17;;;;;;;106.22;36.97;;;3.40;99.90;;;;;;6159002;23;20051;-84
2022/01/26 04:00:42;;;;;;;99.18;36.83;;;3.40;99.90;;;;;;6134084;23;20021;-83
2022/01/26 04:03:08;;;;;;;92.23;34.87;;;3.40;99.90;;;;;;6133950;23;20013;-85
2022/01/26 04:05:34;;;;;;;92.50;35.20;;;3.40;99.90;;;;;;6134094;23;20017;-85
2022/01/26 04:08:06;;;;;;;89.37;34.87;;;3.40;99.90;;;;;;6159397;23;20021;-85
2022/01/26 04:11:02;;;;;;;93.43;34.50;;;3.40;99.90;;;;;;6160698;23;20439;-84
2022/01/26 04:13:28;;;;;;;89.55;34.33;;;3.40;99.90;;;;;;6187017;23;20013;-86
2022/01/26 04:15:54;;;;;;;95.23;35.37;;;3.40;99.90;;;;;;6160455;23;20119;-86
2022/01/26 04:18:25;;;;;;;86.50;34.60;;;3.40;99.90;;;;;;6160192;23;20032;-84
2022/01/26 04:20:55;;;;;;;83.38;31.60;;;3.40;99.90;;;;;;6160310;23;20025;-85
2022/01/26 04:23:33;;;;;;;88.93;34.75;;;3.40;99.90;;;;;;6186837;23;20350;-86
2022/01/26 04:25:59;;;;;;;83.28;32.17;;;3.40;99.90;;;;;;6160227;23;20025;-86
2022/01/26 04:28:31;;;;;;;88.07;33.27;;;3.40;99.90;;;;;;6160189;23;20028;-84
2022/01/26 04:30:57;;;;;;;82.45;31.75;;;3.40;99.90;;;;;;6186704;23;20024;-85
2022/01/26 04:33:23;;;;;;;86.80;31.27;;;3.40;99.90;;;;;;6160242;23;20053;-85
2022/01/26 04:35:49;;;;;;;80.30;33.13;;;3.40;99.90;;;;;;6160193;23;20075;-84
2022/01/26 04:38:21;;;;;;;73.83;30.90;;;3.40;99.90;;;;;;6159852;23;20028;-86
2022/01/26 04:43:36;;;;;;;74.03;30.42;;;3.30;99.90;;;;;;6160265;23;20048;-84
2022/01/26 04:46:02;;;;;;;77.47;31.35;;;3.30;99.90;;;;;;6186493;23;20447;-85
2022/01/26 04:48:28;;;;;;;81.87;31.73;;;3.30;99.90;;;;;;6160363;23;20052;-83
2022/01/26 04:50:53;;;;;;;81.93;31.57;;;3.30;99.90;;;;;;6159726;23;20029;-85
2022/01/26 04:53:19;;;;;;;75.27;29.40;;;3.30;99.90;;;;;;6186614;23;20032;-87
2022/01/26 04:55:45;;;;;;;75.80;31.20;;;3.30;99.90;;;;;;6160043;23;20048;-84
2022/01/26 04:58:11;;;;;;;79.77;31.47;;;3.30;99.90;;;;;;6160120;23;20040;-85
2022/01/26 05:00:36;;;;;;;78.60;31.38;;;3.30;99.90;;;;;;6159708;23;20031;-83
2022/01/26 05:03:02;;;;;;;79.37;30.80;;;3.30;99.90;;;;;;6186365;23;20061;-84
2022/01/26 05:05:28;;;;;;;75.03;30.50;;;3.30;99.90;;;;;;6186261;23;20032;-86
2022/01/26 05:07:54;;;;;;;73.87;30.50;;;3.30;99.90;;;;;;6186365;23;20052;-84
2022/01/26 05:10:19;;;;;;;76.30;31.07;;;3.30;99.90;;;;;;6159947;23;20375;-85
2022/01/26 05:12:45;;;;;;;71.03;29.27;;;3.30;99.90;;;;;;6186408;23;20025;-84
2022/01/26 05:15:11;;;;;;;72.63;29.67;;;3.30;99.90;;;;;;6186270;23;20096;-85
2022/01/26 05:17:38;;;;;;;67.33;28.03;;;3.20;99.90;;;;;;6159802;23;20021;-84
2022/01/26 05:20:09;;;;;;;72.85;29.48;;;3.30;99.90;;;;;;6159079;23;20466;-84
2022/01/26 05:22:38;;;;;;;75.03;30.00;;;3.20;99.90;;;;;;6159675;23;20118;-84
2022/01/26 05:25:04;;;;;;;77.18;31.33;;;3.20;99.90;;;;;;6135234;23;20072;-84
2022/01/26 05:27:30;;;;;;;75.03;29.77;;;3.20;99.90;;;;;;6159764;23;20454;-84
2022/01/26 05:29:55;;;;;;;66.30;28.73;;;3.20;99.90;;;;;;6159835;23;20063;-84
2022/01/26 05:32:21;;;;;;;74.13;29.30;;;3.20;99.90;;;;;;6159741;23;20033;-84
2022/01/26 05:34:47;;;;;;;73.43;30.53;;;3.20;99.90;;;;;;6159673;23;20044;-87
2022/01/26 05:37:12;;;;;;;77.07;29.37;;;3.20;99.90;;;;;;6159701;23;20028;-84
2022/01/26 05:39:38;;;;;;;72.30;30.07;;;3.20;99.90;;;;;;6159518;23;20032;-84
2022/01/26 05:42:06;;;;;;;74.38;29.35;;;3.20;99.90;;;;;;6159653;23;20047;-87
2022/01/26 05:44:32;;;;;;;69.32;28.33;;;3.20;99.90;;;;;;6159790;23;20025;-90
2022/01/26 05:46:58;;;;;;;69.43;28.33;;;3.20;99.90;;;;;;6159608;23;20327;-85
2022/01/26 05:49:25;;;;;;;72.43;28.23;;;3.20;99.90;;;;;;6186043;23;20342;-85
2022/01/26 05:51:50;;;;;;;;;;;3.20;99.90;;;;;;6160043;23;20020;-85
2022/01/26 05:54:16;;;;;;;67.10;26.88;;;3.20;99.90;;;;;;6159465;23;19915;-87
2022/01/26 05:56:44;;;;;;;66.17;27.23;;;3.10;99.90;;;;;;6135143;23;20027;-86
2022/01/26 05:59:11;;;;;;;66.00;28.55;;;3.10;99.90;;;;;;6159436;23;20020;-85
2022/01/26 06:01:39;;;;;;;70.85;28.08;;;3.10;99.90;;;;;;6160049;23;20451;-87
2022/01/26 06:04:05;;;;;;;71.82;29.13;;;3.10;99.90;;;;;;6159711;23;20017;-86
2022/01/26 06:06:31;;;;;;;65.95;28.42;;;3.10;99.90;;;;;;6159781;23;20099;-88
2022/01/26 06:08:56;;;;;;;74.53;28.93;;;3.10;99.90;;;;;;6134747;23;20025;-89
2022/01/26 06:11:22;;;;;;;77.03;29.40;;;3.10;99.90;;;;;;6185727;23;20028;-89
2022/01/26 06:13:48;;;;;;;69.73;28.40;;;3.10;99.90;;;;;;6134860;23;20021;-89
2022/01/26 06:16:26;;;;;;;71.10;29.00;;;3.10;99.90;;;;;;6159944;23;20035;-84
2022/01/26 06:19:04;;;;;;;72.28;28.45;;;3.10;99.90;;;;;;6134588;23;20096;-87
2022/01/26 06:21:29;;;;;;;78.43;30.60;;;3.10;99.90;;;;;;6134290;23;20043;-87
2022/01/26 06:23:55;;;;;;;70.05;28.38;;;3.10;99.90;;;;;;6134923;23;20470;-86
2022/01/26 06:26:21;;;;;;;68.60;28.90;;;3.10;99.90;;;;;;6134828;23;20398;-88
2022/01/26 06:28:46;;;;;;;72.53;29.57;;;3.10;99.90;;;;;;6134810;23;20025;-89
2022/01/26 06:31:15;;;;;;;68.63;30.20;;;3.10;99.90;;;;;;6158856;23;20021;-87
2022/01/26 06:33:43;;;;;;;71.65;30.30;;;3.10;99.90;;;;;;6159470;23;20016;-87
2022/01/26 06:36:16;;;;;;;77.45;29.85;;;3.00;99.90;;;;;;6159646;23;20044;-86
2022/01/26 06:38:43;;;;;;;76.28;30.92;;;3.10;99.90;;;;;;6159092;23;20346;-89
2022/01/26 06:41:10;;;;;;;82.85;30.33;;;3.10;99.90;;;;;;6136867;23;20017;-91
2022/01/26 06:43:45;;;;;;;73.53;30.85;;;3.10;99.90;;;;;;6133023;23;20032;-89
2022/01/26 06:46:18;;;;;;;82.53;30.60;;;3.10;99.90;;;;;;6183231;23;20017;-87
2022/01/26 06:49:29;;;;;;;76.35;33.30;;;3.10;99.90;;;;;;6133240;23;20095;-89
2022/01/26 06:52:10;;;;;;;70.72;30.38;;;3.10;99.90;;;;;;6041554;23;20105;-87
2022/01/26 06:54:48;;;;;;;77.82;30.23;;;3.10;99.90;;;;;;6043680;23;20118;-86
2022/01/26 06:57:14;;;;;;;82.95;32.28;;;3.10;99.90;;;;;;6121123;23;20029;-89
2022/01/26 06:59:40;;;;;;;82.72;32.35;;;3.00;99.90;;;;;;6161543;23;20339;-95
2022/01/26 07:02:06;;;;;;;75.47;31.50;;;3.10;99.90;;;;;;6162982;23;20072;-87
2022/01/26 07:04:31;;;;;;;84.30;32.50;;;3.10;99.90;;;;;;6136127;23;20447;-91
2022/01/26 07:06:57;;;;;;;78.20;31.17;;;3.10;99.90;;;;;;6139151;23;20100;-88
2022/01/26 07:09:23;;;;;;;81.60;32.07;;;3.00;99.90;;;;;;6146740;23;20080;-87
2022/01/26 07:11:48;;;;;;;76.80;31.60;;;3.00;99.90;;;;;;6144716;23;20044;-96
2022/01/26 07:14:26;;;;;;;78.07;31.80;;;3.00;99.90;;;;;;6148168;23;20104;-91
2022/01/26 07:19:53;;;;;;;77.72;31.83;;;3.00;99.90;;;;;;6194412;23;20111;-86
2022/01/26 07:22:20;;;;;;;77.78;30.98;;;3.00;99.90;;;;;;6142271;23;20552;-88
2022/01/26 07:24:46;;;;;;;79.70;31.70;;;3.00;99.90;;;;;;6143786;23;20037;-86
2022/01/26 07:27:12;;;;;;;78.95;32.15;;;3.00;99.90;;;;;;6169318;23;20021;-89
2022/01/26 07:29:38;;;;;;;77.43;33.07;;;3.00;99.90;;;;;;6167580;23;20028;-87
2022/01/26 07:32:06;;;;;;;81.10;32.20;;;3.00;99.90;;;;;;6191825;23;20045;-89
2022/01/26 07:34:32;;;;;;;84.53;33.65;;;3.00;99.90;;;;;;6166228;23;20025;-88
2022/01/26 07:37:06;;;;;;;84.70;32.60;;;3.00;99.90;;;;;;6190433;23;20028;-86
2022/01/26 07:42:08;;;;;;;84.28;34.08;;;3.10;99.90;;;;;;6192166;23;20025;-84
2022/01/26 07:44:34;;;;;;;85.70;33.83;;;3.10;99.90;;;;;;6169122;23;20508;-85
2022/01/26 07:46:59;;;;;;;87.20;34.23;;;3.10;99.90;;;;;;6195036;23;20029;-90
2022/01/26 07:49:26;;;;;;;90.47;36.10;;;3.10;99.90;;;;;;6195436;23;20027;-90
2022/01/26 07:51:51;;;;;;;87.57;34.25;;;3.10;99.90;;;;;;6221044;23;20027;-89
2022/01/26 07:54:36;;;;;;;110.77;42.57;;;3.10;99.90;;;;;;6195242;23;20029;-84
2022/01/26 07:57:33;;;;;;;92.55;35.40;;;3.10;99.90;;;;;;6196454;23;20075;-88
2022/01/26 08:00:24;;;;;;;98.47;38.47;;;3.20;99.90;;;;;;6219202;23;20472;-85
2022/01/26 08:02:50;;;;;;;90.78;38.00;;;3.10;99.90;;;;;;6190051;23;20093;-86
2022/01/26 08:05:17;;;;;;;89.47;36.42;;;3.20;99.90;;;;;;6217130;23;20060;-88
2022/01/26 08:07:43;;;;;;;83.45;35.05;;;3.20;99.90;;;;;;6217057;23;20046;-85
2022/01/26 08:10:10;;;;;;;96.63;37.20;;;3.20;99.90;;;;;;6216793;23;20409;-84
2022/01/26 08:12:36;;;;;;;;;;;3.20;99.90;;;;;;6217455;23;20477;-88
2022/01/26 08:15:02;;;;;;;93.10;35.88;;;3.20;99.90;;;;;;6190243;23;19912;-87
2022/01/26 08:17:28;;;;;;;93.07;39.00;;;3.20;99.90;;;;;;6216850;23;20099;-85
2022/01/26 08:19:56;;;;;;;98.60;38.97;;;3.20;99.90;;;;;;6190226;23;20271;-85
2022/01/26 08:22:24;;;;;;;98.53;37.03;;;3.30;99.90;;;;;;6216718;23;20147;-90
2022/01/26 08:24:50;;;;;;;91.82;37.35;;;3.20;99.90;;;;;;6190162;23;20021;-86
2022/01/26 08:27:18;;;;;;;106.95;39.50;;;3.30;99.90;;;;;;6216611;23;20035;-85
2022/01/26 08:32:20;;;;;;;99.13;37.38;;;3.40;99.90;;;;;;6217998;23;20450;-85
2022/01/26 08:34:45;;;;;;;94.30;38.80;;;3.30;99.90;;;;;;6167575;23;20020;-90
2022/01/26 08:37:11;;;;;;;96.23;38.57;;;3.40;99.90;;;;;;6190923;23;20036;-86
2022/01/26 08:39:37;;;;;;;94.13;38.43;;;3.40;99.90;;;;;;6166246;23;20032;-95
2022/01/26 08:42:08;;;;;;;96.27;40.80;;;3.40;99.90;;;;;;6166482;23;20099;-87
2022/01/26 08:44:42;;;;;;;99.97;40.70;;;3.40;99.90;;;;;;6167103;23;20021;-86
2022/01/26 08:47:22;;;;;;;96.75;39.53;;;3.40;99.90;;;;;;6192603;23;20027;-89
2022/01/26 08:49:48;;;;;;;97.90;39.00;;;3.40;99.90;;;;;;6180275;23;20026;-87
2022/01/26 08:52:14;;;;;;;100.57;40.47;;;3.50;99.90;;;;;;6155920;23;20057;-87
2022/01/26 08:54:39;;;;;;;100.00;40.03;;;3.40;99.90;;;;;;6156177;23;20013;-87
2022/01/26 08:57:06;;;;;;;103.53;40.87;;;3.40;99.90;;;;;;6155533;23;20387;-90
2022/01/26 08:59:32;;;;;;;103.93;38.38;;;3.40;99.90;;;;;;6155503;23;20026;-86
2022/01/26 09:01:57;;;;;;;110.93;40.20;;;3.50;99.90;;;;;;6131411;23;20080;-89
2022/01/26 09:04:23;;;;;;;106.90;41.53;;;3.50;99.90;;;;;;6155254;23;20021;-87
2022/01/26 09:06:55;;;;;;;106.27;42.13;;;3.50;99.90;;;;;;6130591;23;20052;-87
2022/01/26 09:09:23;;;;;;;107.80;42.83;;;3.50;99.90;;;;;;6156777;23;20096;-90
2022/01/26 09:11:51;;;;;;;112.65;39.85;;;3.50;99.90;;;;;;6154861;23;20028;-87
2022/01/26 09:14:20;;;;;;;103.20;42.90;;;3.50;99.90;;;;;;6155081;23;20028;-87
2022/01/26 09:16:46;;;;;;;115.65;42.75;;;3.50;99.90;;;;;;6155008;23;20024;-87
2022/01/26 09:19:26;;;;;;;113.22;43.55;;;3.50;99.90;;;;;;6130275;23;20021;-85
2022/01/26 09:21:53;;;;;;;105.97;41.97;;;3.50;99.90;;;;;;6108845;23;20021;-94
2022/01/26 09:24:28;;;;;;;101.95;41.03;;;3.50;99.90;;;;;;6137114;23;20026;-85
2022/01/26 09:26:54;;;;;;;105.93;41.53;;;3.60;99.90;;;;;;6105952;23;20013;-85
2022/01/26 09:29:20;;;;;;;104.97;42.87;;;3.60;99.90;;;;;;6106126;23;20026;-85
2022/01/26 09:31:47;;;;;;;106.60;41.10;;;3.60;99.90;;;;;;6105222;23;20786;-84
2022/01/26 09:34:35;;;;;;;96.47;40.60;;;3.60;99.90;;;;;;6104998;23;20018;-86
2022/01/26 09:38:07;;;;;;;109.03;43.65;;;3.60;99.90;;;;;;6105358;23;20026;-86
2022/01/26 09:40:33;;;;;;;101.30;41.67;;;3.70;99.90;;;;;;6107333;23;20026;-86
2022/01/26 09:43:00;;;;;;;104.43;43.22;;;3.60;99.90;;;;;;6106044;23;20025;-86
2022/01/26 09:45:28;;;;;;;100.18;42.03;;;3.60;99.90;;;;;;6106508;23;20021;-87
2022/01/26 09:47:54;;;;;;;98.57;41.22;;;3.70;99.90;;;;;;6105574;23;20032;-85
2022/01/26 09:50:20;;;;;;;99.27;42.23;;;3.70;99.90;;;;;;6105988;23;20025;-86
2022/01/26 09:52:48;;;;;;;93.47;40.70;;;3.70;99.90;;;;;;6105707;23;20463;-86
2022/01/26 09:55:17;;;;;;;101.35;41.35;;;3.70;99.90;;;;;;6106846;23;20039;-86
2022/01/26 09:57:46;;;;;;;96.78;40.72;;;3.70;99.90;;;;;;6107857;23;20022;-86
2022/01/26 10:00:14;;;;;;;96.80;40.10;;;3.80;99.90;;;;;;6108625;23;20026;-85
2022/01/26 10:02:50;;;;;;;92.60;39.45;;;3.80;99.90;;;;;;6083893;23;20042;-86
2022/01/26 10:05:17;;;;;;;88.68;38.50;;;3.80;99.90;;;;;;6108622;23;20025;-88
2022/01/26 10:08:02;;;;;;;92.60;38.33;;;3.80;99.90;;;;;;6072431;23;20449;-85
2022/01/26 10:18:41;;;;;;;85.97;36.33;;;4.00;99.90;;;;;;5962170;24;20427;-86
2022/01/26 10:21:08;;;;;;;83.77;38.63;;;4.00;99.90;;;;;;6006217;23;20070;-89
2022/01/26 10:23:38;;;;;;;82.38;36.95;;;4.00;99.90;;;;;;6105111;23;20050;-94
2022/01/26 10:26:14;;;;;;;81.63;35.78;;;4.00;99.90;;;;;;6109496;23;20022;-86
2022/01/26 10:28:46;;;;;;;80.68;36.30;;;4.10;99.90;;;;;;6075666;23;20539;-87
2022/01/26 10:31:22;;;;;;;84.40;36.15;;;4.10;99.90;;;;;;6099861;23;20025;-86
2022/01/26 10:34:01;;;;;;;85.45;36.08;;;4.10;99.90;;;;;;6075075;23;20026;-87
2022/01/26 10:36:34;;;;;;;82.80;35.20;;;4.10;99.90;;;;;;6102007;23;20022;-92
2022/01/26 10:39:07;;;;;;;75.70;33.60;;;4.10;99.90;;;;;;6119141;23;20025;-85
2022/01/26 10:41:35;;;;;;;83.47;35.42;;;4.10;99.90;;;;;;6116222;23;20032;-86
2022/01/26 10:44:02;;;;;;;78.38;34.47;;;4.10;99.90;;;;;;6136191;23;20582;-86
2022/01/26 10:46:39;;;;;;;77.03;34.63;;;4.20;99.90;;;;;;6112728;23;20028;-92
2022/01/26 10:49:15;;;;;;;76.85;32.58;;;4.20;99.90;;;;;;6138459;23;20153;-86
2022/01/26 10:54:27;;;;;;;76.10;33.30;;;4.10;99.90;;;;;;6134300;23;20057;-88
2022/01/26 10:56:53;;;;;;;83.00;32.70;;;4.20;99.90;;;;;;6134467;23;20028;-86
2022/01/26 10:59:20;;;;;;;82.70;33.37;;;4.20;99.90;;;;;;6135100;23;20017;-88
2022/01/26 11:01:47;;;;;;;77.97;33.13;;;4.20;99.90;;;;;;6134930;23;20096;-86
2022/01/26 11:04:13;;;;;;;67.50;32.22;;;4.20;99.90;;;;;;6162433;23;20111;-87
2022/01/26 11:06:42;;;;;;;75.28;32.45;;;4.20;99.90;;;;;;6160417;23;20056;-85
2022/01/26 11:09:13;;;;;;;71.00;30.50;;;4.20;99.90;;;;;;6111812;23;20026;-86
2022/01/26 11:11:40;;;;;;;72.45;31.50;;;4.20;99.90;;;;;;6157158;23;20048;-86
2022/01/26 11:14:22;;;;;;;80.07;32.45;;;4.20;99.90;;;;;;6133608;23;20092;-85
2022/01/26 11:17:01;;;;;;;76.70;30.83;;;4.20;99.90;;;;;;6133706;23;20060;-84
2022/01/26 11:19:27;;;;;;;75.10;30.73;;;4.10;99.90;;;;;;6131925;23;20036;-85
2022/01/26 11:21:53;;;;;;;75.40;33.37;;;4.10;99.90;;;;;;6159158;23;20107;-86
2022/01/26 11:24:22;;;;;;;77.10;31.30;;;4.20;99.90;;;;;;6133070;23;20030;-91
2022/01/26 11:27:01;;;;;;;86.63;31.60;;;4.10;99.90;;;;;;6132529;23;20032;-87
2022/01/26 11:29:33;;;;;;;78.40;31.65;;;4.10;99.90;;;;;;6132760;23;20021;-83
2022/01/26 11:32:06;;;;;;;80.45;32.55;;;4.10;99.90;;;;;;6132706;23;20026;-89
2022/01/26 11:34:36;;;;;;;85.93;31.25;;;4.10;99.90;;;;;;6132511;23;20021;-87
2022/01/26 11:37:06;;;;;;;83.00;31.67;;;4.10;99.90;;;;;;6131912;23;20025;-92
2022/01/26 11:45:06;;;;;;;81.57;32.17;;;4.20;99.90;;;;;;6131125;23;20032;-85
2022/01/26 11:47:34;;;;;;;78.07;31.42;;;4.20;99.90;;;;;;6130832;23;20056;-84
2022/01/26 11:50:07;;;;;;;89.82;33.38;;;4.20;99.90;;;;;;6156358;23;20021;-88
2022/01/26 11:52:38;;;;;;;78.57;33.35;;;4.30;99.90;;;;;;6132791;23;20018;-88
2022/01/26 11:55:33;;;;;;;79.60;31.58;;;4.30;99.90;;;;;;6132144;23;20021;-87
2022/01/26 11:58:37;;;;;;;78.57;32.58;;;4.30;99.90;;;;;;6107731;23;20025;-87
2022/01/26 12:01:13;;;;;;;86.38;32.47;;;4.30;99.90;;;;;;6105954;23;20028;-92
2022/01/26 12:03:47;;;;;;;79.85;30.08;;;4.30;99.90;;;;;;6138500;23;20064;-90
2022/01/26 12:06:39;;;;;;;77.35;30.50;;;4.30;99.90;;;;;;6137700;23;20073;-90
2022/01/26 12:09:27;;;;;;;71.72;30.27;;;4.30;99.90;;;;;;6138827;23;20414;-90
2022/01/26 12:11:55;;;;;;;76.25;31.13;;;4.30;99.90;;;;;;6138241;23;20096;-89
2022/01/26 12:14:23;;;;;;;81.32;30.85;;;4.30;99.90;;;;;;6139161;23;20032;-90
2022/01/26 12:16:55;;;;;;;80.13;32.97;;;4.30;99.90;;;;;;6115041;23;20013;-88
2022/01/26 12:19:33;;;;;;;87.38;30.92;;;4.30;99.90;;;;;;6137525;23;20022;-90
2022/01/26 12:32:23;;;;;;;87.07;34.08;;;4.30;99.90;;;;;;6094741;23;20029;-89
2022/01/26 12:35:09;;;;;;;85.00;33.60;;;4.30;99.90;;;;;;6107591;23;20325;-93
2022/01/26 12:43:18;;;;;;;89.30;34.45;;;4.40;99.90;;;;;;6102003;23;20109;-93
2022/01/26 12:45:46;;;;;;;94.70;36.05;;;4.30;99.90;;;;;;6102863;23;20018;-89
2022/01/26 12:52:16;;;;;;;89.65;33.50;;;4.40;99.90;;;;;;6129584;23;20013;-96
2022/01/26 12:54:46;;;;;;;84.45;34.28;;;4.40;99.90;;;;;;6102977;23;20029;-92
2022/01/26 12:57:13;;;;;;;88.78;33.42;;;4.40;99.90;;;;;;6078372;23;20297;-94
2022/01/26 12:59:39;;;;;;;89.20;34.85;;;4.40;99.90;;;;;;6101869;23;20021;-95
2022/01/26 13:02:05;;;;;;;93.93;34.30;;;4.40;99.90;;;;;;6102198;23;20025;-93
2022/01/26 13:04:30;;;;;;;90.80;34.93;;;4.40;99.90;;;;;;6101545;23;20233;-88
2022/01/26 13:06:56;;;;;;;75.03;32.40;;;4.40;99.90;;;;;;6101264;23;20018;-90
2022/01/26 13:09:28;;;;;;;73.00;32.03;;;4.40;99.90;;;;;;6101356;23;20022;-84
2022/01/26 13:11:58;;;;;;;93.20;34.33;;;4.40;99.90;;;;;;6127397;23;20025;-84
2022/01/26 13:14:42;;;;;;;81.40;32.53;;;4.50;99.90;;;;;;6101415;23;20049;-89
2022/01/26 13:25:55;;;;;;;81.45;32.55;;;4.60;99.90;;;;;;6131230;23;20088;-87
2022/01/26 13:28:37;;;;;;;79.68;33.13;;;4.60;99.90;;;;;;6131994;23;20049;-92
2022/01/26 13:34:35;;;;;;;72.35;30.15;;;4.70;99.90;;;;;;6135124;23;20104;-84
2022/01/26 13:40:41;;;;;;;74.68;31.48;;;4.70;99.90;;;;;;6122887;23;20028;-85
2022/01/26 13:44:01;;;;;;;76.68;32.05;;;4.70;99.90;;;;;;6106140;23;20025;-90
2022/01/26 13:51:22;;;;;;;72.73;30.50;;;4.80;99.90;;;;;;6131701;23;20057;-85
2022/01/26 13:53:55;;;;;;;68.85;30.55;;;4.80;99.90;;;;;;6070348;23;20033;-88
2022/01/26 13:56:52;;;;;;;74.18;30.38;;;4.80;99.90;;;;;;6078850;23;20018;-90
2022/01/26 13:59:28;;;;;;;69.32;30.73;;;4.80;99.90;;;;;;6104327;23;20082;-93
2022/01/26 14:01:57;;;;;;;73.18;30.65;;;4.80;99.90;;;;;;6128842;23;20018;-89
2022/01/26 14:08:22;;;;;;;70.93;29.10;;;4.90;99.90;;;;;;6129331;23;20072;-88
2022/01/26 14:13:26;;;;;;;69.20;29.55;;;4.90;99.90;;;;;;6194600;23;20024;-89
2022/01/26 14:26:52;;;;;;;66.57;27.65;;;4.90;99.90;;;;;;6244174;22;1417015;-86
2022/01/26 14:29:34;;;;;;;62.03;27.20;;;5.00;99.90;;;;;;6228248;22;20020;-87
2022/01/26 15:33:14;;;;;;;59.45;27.25;;;5.30;99.90;;;;;;6245624;22;20047;-95
2022/01/26 15:43:33;;;;;;;59.05;25.25;;;5.30;99.90;;;;;;6245386;22;20026;-85
2022/01/26 15:51:11;;;;;;;62.22;27.05;;;5.30;99.90;;;;;;6245640;22;20015;-86
2022/01/26 16:19:21;;;;;;;62.67;26.30;;;5.40;99.90;;;;;;6274060;22;20022;-93
2022/01/26 16:21:01;;;;;;;58.47;24.58;;;5.40;99.90;;;;;;6272684;22;20068;-92
2022/01/26 17:12:50;;;;;;;51.38;23.65;;;5.50;99.90;;;;;;6273009;22;20068;-89
2022/01/26 18:04:32;;;;;;;48.08;22.48;;;5.70;99.90;;;;;;6275120;22;20052;-86
2022/01/26 18:18:12;;;;;;;48.80;23.80;;;5.70;99.90;;;;;;6183888;23;20021;-82
2022/01/26 18:26:44;;;;;;;61.10;30.15;;;5.80;99.90;;;;;;6244536;22;20566;-84
2022/01/26 18:31:57;;;;;;;48.83;23.75;;;5.80;99.90;;;;;;6245020;22;20045;-89
2022/01/26 18:50:49;;;;;;;44.28;22.20;;;5.90;99.90;;;;;;6244572;22;20072;-84
2022/01/26 18:53:15;;;;;;;42.83;23.30;;;5.90;99.90;;;;;;6244939;22;20024;-89
2022/01/26 18:55:41;;;;;;;46.00;22.63;;;5.90;99.90;;;;;;6244507;22;20027;-83
2022/01/26 18:58:07;;;;;;;49.30;25.17;;;6.00;99.90;;;;;;6271603;22;20022;-88
2022/01/26 19:00:33;;;;;;;45.67;21.90;;;6.00;99.90;;;;;;6244437;22;20401;-87
2022/01/26 19:03:00;;;;;;;44.75;22.90;;;6.00;99.90;;;;;;6245876;22;20020;-85
2022/01/26 19:05:27;;;;;;;42.65;22.10;;;6.00;99.90;;;;;;6245883;22;20037;-86
2022/01/26 19:07:55;;;;;;;40.17;23.10;;;6.00;99.90;;;;;;6274011;22;20016;-92
2022/01/26 19:10:21;;;;;;;45.10;21.75;;;6.00;99.90;;;;;;6246422;22;20448;-88
2022/01/26 19:12:49;;;;;;;37.72;21.20;;;6.00;99.90;;;;;;6272968;22;20016;-84
2022/01/26 19:15:17;;;;;;;41.05;21.17;;;6.10;99.90;;;;;;6245922;22;20023;-84
2022/01/26 19:17:53;;;;;;;42.72;24.38;;;6.10;99.90;;;;;;6247146;22;20015;-85
2022/01/26 19:51:12;;;;;;;35.13;18.88;;;6.20;99.90;;;;;;6370512;22;20070;-83
2022/01/26 19:53:39;;;;;;;38.65;19.40;;;6.20;99.90;;;;;;6400600;22;20144;-84
2022/01/26 19:56:04;;;;;;;;;;;6.20;99.90;;;;;;6400541;22;20098;-86
2022/01/26 19:58:30;;;;;;;43.92;19.05;;;6.20;99.90;;;;;;6372200;22;19913;-86
2022/01/26 20:00:57;;;;;;;34.27;19.17;;;6.20;99.90;;;;;;6372546;22;20017;-83
2022/01/26 20:03:23;;;;;;;40.10;20.50;;;6.30;99.90;;;;;;6345604;22;20014;-83
2022/01/26 20:05:53;;;;;;;41.40;19.70;;;6.30;99.90;;;;;;6373121;22;20014;-82